Airfield :
LOGIN :

Register | Disclaimer

   EN    FR    IT 

 










Legend :    VFR   Marginal VFR   IFR   Intensive IFR   Very Intensive IFR
Visi :
Ceiling :
>= 8 km
>= 3000ft
5 to 8 km
1000 to 3000 ft
1500m to 5 km
500 to 1000 ft
800 to 1500m
200 to 500 ft
< 800m
< 200 ft
Symbols :   Thunderstorms  Fog  Heavy snow  Heavy precipitations  Wind > 20 kt
SIGMETs :     Misc.  Thunderstorms  Icing  Turbulence  Mountain Waves  Volcanic Ashes







- Airport Elevation : -15 ft
- IATA code : RTM


EHRD - Rotterdam Zestienhoven

CURRENT METAR :
  • 200725Z AUTO 21010KT 9999 FEW014 BKN016 BKN019 17/14 Q1010 NOSIG

EXPIRED METARs :
  • 200655Z AUTO 23012KT 200V260 9999 BKN011 BKN014 OVC017 16/14 Q1009 NOSIG
  • 200625Z AUTO 24009KT 210V270 9999 BKN016 OVC019 16/14 Q1009 NOSIG
  • 200555Z AUTO 25010KT 220V280 9999 FEW012 SCT014 BKN018 17/14 Q1009 NOSIG
  • 200525Z AUTO 25008KT 220V290 9999 BKN011 OVC015 17/15 Q1009 BECMG BKN016
  • 200455Z AUTO 24008KT 6000 DZ FEW009 BKN010 FEW015CB BKN017 17/16 Q1009 BECMG SCT025 TEMPO 4500 -SHRA SCT020CB

TAF TAF EHRD
Valid from the 20 at 06:00 until the 21 at 12:00 UTC


200447Z 2006/2112 24006KT 7000 SCT022
BECMG 2006/2009 21010KT 9999
PROB30
TEMPO 2006/2012 4500 SHRA RA SCT007 SCT025CB
BECMG 2009/2012 27012KT
BECMG 2017/2020 22006KT
PROB30
TEMPO 2102/2108 7000 -SHRA BKN012 FEW017TCU
BECMG 2108/2111 28008KT
No reported NOTAMs for that airfield.



MET'MAP, your aeronautical weather chart ! - Copyright ORBIFLY December 2007 - Disclaimer

ORBIFLY MET'MAP TEAM :

Programming & Development : Alexandra Zaïnal
Concept & Development : Baudouin d'Aumeries
Co-Development & Prog : Marc-Olivier Méhu
Technical & hardware support : Manuel Goepfert

Contact : metmap@orbifly.com




SOURCES & CREDITS :

   NOAA